Time;durP1;ratioP1;P1;durP2;ratioP2;P2;SDS_P1;SDS_P2;PMS_P1;PMS_P2;Temp;Humidity;BMP_temperature;BMP_pressure;BME280_temperature;BME280_humidity;BME280_pressure;Samples;Min_cycle;Max_cycle;Signal;HPM_P1;HPM_P2
2022/05/07 00:02:08;;;;;;;6.83;6.23;;;11.00;99.90;;;;;;5048445;28;20490;-65
2022/05/07 00:04:38;;;;;;;6.75;6.13;;;11.10;99.90;;;;;;5051020;28;20213;-65
2022/05/07 00:07:05;;;;;;;8.00;6.68;;;11.10;99.90;;;;;;5065833;28;20210;-65
2022/05/07 00:09:31;;;;;;;7.97;6.78;;;11.10;99.90;;;;;;5049915;28;20186;-65
2022/05/07 00:11:57;;;;;;;8.32;7.53;;;10.90;99.90;;;;;;5050148;28;20187;-65
2022/05/07 00:14:23;;;;;;;7.78;7.07;;;11.10;99.90;;;;;;5044471;28;20211;-65
2022/05/07 00:19:34;;;;;;;7.03;6.30;;;11.10;99.90;;;;;;5045644;28;20343;-65
2022/05/07 00:22:00;;;;;;;7.25;6.55;;;11.00;99.90;;;;;;5049609;28;20185;-65
2022/05/07 00:24:26;;;;;;;6.73;6.03;;;10.80;99.90;;;;;;5049919;28;20680;-65
2022/05/07 00:26:52;;;;;;;6.70;6.10;;;10.80;99.90;;;;;;5049373;28;20449;-65
2022/05/07 00:29:17;;;;;;;7.22;6.53;;;10.50;99.90;;;;;;5049849;28;21002;-65
2022/05/07 00:31:43;;;;;;;6.83;6.23;;;10.50;99.90;;;;;;5049810;28;20268;-65
2022/05/07 00:34:09;;;;;;;7.50;6.30;;;10.40;99.90;;;;;;5049082;28;20289;-65
2022/05/07 00:36:35;;;;;;;7.60;6.80;;;10.60;99.90;;;;;;5065579;28;20268;-65
2022/05/07 00:39:01;;;;;;;9.23;6.07;;;10.40;99.90;;;;;;5048623;28;20190;-65
2022/05/07 00:41:27;;;;;;;8.87;6.33;;;10.40;99.90;;;;;;5044994;28;20601;-65
2022/05/07 00:43:53;;;;;;;7.95;6.38;;;10.40;99.90;;;;;;5040478;28;20220;-65
2022/05/07 00:46:25;;;;;;;7.17;6.57;;;10.40;99.90;;;;;;5050177;28;20186;-65
2022/05/07 00:48:51;;;;;;;9.23;6.93;;;10.40;99.90;;;;;;5048705;28;20189;-65
2022/05/07 00:54:17;;;;;;;7.57;6.70;;;10.10;99.90;;;;;;5025020;28;20229;-65
2022/05/07 00:56:42;;;;;;;7.20;6.47;;;10.10;99.90;;;;;;5043914;28;20195;-65
2022/05/07 00:59:08;;;;;;;7.47;6.70;;;10.20;99.90;;;;;;5051060;28;20185;-65
2022/05/07 01:01:34;;;;;;;6.97;6.27;;;10.30;99.90;;;;;;5053011;28;20192;-65
2022/05/07 01:04:00;;;;;;;6.87;6.27;;;10.10;99.90;;;;;;5052573;28;20465;-65
2022/05/07 01:06:26;;;;;;;6.75;6.05;;;10.30;99.90;;;;;;5053433;28;20444;-65
2022/05/07 01:08:52;;;;;;;6.87;6.23;;;10.20;99.90;;;;;;5053871;28;20182;-65
2022/05/07 01:11:19;;;;;;;8.20;6.80;;;10.10;99.90;;;;;;5065621;28;20190;-65
2022/05/07 01:13:46;;;;;;;7.75;6.95;;;10.00;99.90;;;;;;5065121;28;20277;-65
2022/05/07 01:16:12;;;;;;;6.80;6.20;;;10.10;99.90;;;;;;5049624;28;20220;-66
2022/05/07 01:18:38;;;;;;;6.85;5.90;;;10.30;99.90;;;;;;5051044;28;20205;-66
2022/05/07 01:21:12;;;;;;;5.95;5.35;;;10.00;99.90;;;;;;5052518;28;20186;-65
2022/05/07 01:23:40;;;;;;;7.05;6.18;;;10.10;99.90;;;;;;5051631;28;20609;-65
2022/05/07 01:26:06;;;;;;;6.15;5.57;;;9.90;99.90;;;;;;5052508;28;20213;-65
2022/05/07 01:28:31;;;;;;;6.97;6.27;;;9.80;99.90;;;;;;5053852;28;20209;-65
2022/05/07 01:30:57;;;;;;;6.30;5.70;;;9.90;99.90;;;;;;5052179;28;20213;-66
2022/05/07 01:33:22;;;;;;;7.80;6.43;;;10.10;99.90;;;;;;5051494;28;20196;-66
2022/05/07 01:35:48;;;;;;;6.87;6.23;;;10.00;99.90;;;;;;5052845;28;20221;-66
2022/05/07 01:38:14;;;;;;;7.38;6.78;;;9.70;99.90;;;;;;5051735;28;20193;-66
2022/05/07 01:40:40;;;;;;;6.33;5.70;;;9.90;99.90;;;;;;5051884;28;20186;-66
2022/05/07 01:43:06;;;;;;;9.27;6.78;;;9.70;99.90;;;;;;5049500;28;20734;-66
2022/05/07 01:45:32;;;;;;;7.17;6.40;;;9.70;99.90;;;;;;5061742;28;20212;-66
2022/05/07 01:48:10;;;;;;;5.93;5.43;;;9.80;99.90;;;;;;5051541;28;20231;-66
2022/05/07 01:50:42;;;;;;;7.90;5.90;;;9.70;99.90;;;;;;5053014;28;20264;-66
2022/05/07 01:53:11;;;;;;;5.90;5.40;;;9.90;99.90;;;;;;5045546;28;20275;-65
2022/05/07 01:55:36;;;;;;;7.00;6.40;;;9.90;99.90;;;;;;5050589;28;20205;-66
2022/05/07 01:58:02;;;;;;;7.13;6.40;;;9.80;99.90;;;;;;5051560;28;20192;-66
2022/05/07 02:00:30;;;;;;;8.23;6.40;;;9.50;99.90;;;;;;5051221;28;20263;-66
2022/05/07 02:02:59;;;;;;;7.47;6.65;;;9.80;99.90;;;;;;5063584;28;20194;-66
2022/05/07 02:05:27;;;;;;;7.65;6.95;;;9.50;99.90;;;;;;5049730;28;20210;-66
2022/05/07 02:07:53;;;;;;;7.30;6.60;;;9.30;99.90;;;;;;5052269;28;20318;-66
2022/05/07 02:10:20;;;;;;;7.28;6.47;;;9.80;99.90;;;;;;5051452;28;20185;-66
2022/05/07 02:12:46;;;;;;;7.30;6.60;;;9.50;99.90;;;;;;5067305;28;20189;-66
2022/05/07 02:15:11;;;;;;;7.95;7.15;;;9.40;99.90;;;;;;5052010;28;20576;-66
2022/05/07 02:17:37;;;;;;;8.13;6.47;;;9.50;99.90;;;;;;5051128;28;20209;-66
2022/05/07 02:20:04;;;;;;;7.10;6.00;;;9.40;99.90;;;;;;5051876;28;20217;-66
2022/05/07 02:22:30;;;;;;;6.88;6.28;;;9.50;99.90;;;;;;5051299;28;20200;-66
2022/05/07 02:24:57;;;;;;;7.10;6.40;;;9.50;99.90;;;;;;5051781;28;20674;-66
2022/05/07 02:27:23;;;;;;;6.20;5.60;;;9.60;99.90;;;;;;5050808;28;20690;-66
2022/05/07 02:29:48;;;;;;;7.97;6.00;;;9.40;99.90;;;;;;5051705;28;20280;-66
2022/05/07 02:32:14;;;;;;;7.27;6.53;;;9.30;99.90;;;;;;5049459;28;20198;-65
2022/05/07 02:34:41;;;;;;;7.20;6.50;;;9.40;99.90;;;;;;5046805;28;20213;-66
2022/05/07 02:37:06;;;;;;;6.72;6.05;;;9.20;99.90;;;;;;5055762;28;20220;-66
2022/05/07 02:39:33;;;;;;;7.17;6.03;;;9.30;99.90;;;;;;5049456;28;20194;-66
2022/05/07 02:44:43;;;;;;;8.85;6.10;;;9.50;99.90;;;;;;5051464;28;20231;-66
2022/05/07 02:47:09;;;;;;;6.10;5.60;;;9.20;99.90;;;;;;5066570;28;20245;-66
2022/05/07 02:49:34;;;;;;;8.43;7.00;;;9.10;99.90;;;;;;5051780;28;20221;-66
2022/05/07 02:52:00;;;;;;;8.03;6.50;;;9.30;99.90;;;;;;5051589;28;20217;-66
2022/05/07 02:54:27;;;;;;;6.97;6.32;;;9.30;99.90;;;;;;5066877;28;20225;-66
2022/05/07 02:56:53;;;;;;;6.60;6.00;;;9.40;99.90;;;;;;5050392;28;20193;-66
2022/05/07 02:59:19;;;;;;;7.88;6.93;;;9.10;99.90;;;;;;5050766;28;20608;-66
2022/05/07 03:01:45;;;;;;;6.47;5.87;;;9.30;99.90;;;;;;5050335;28;20178;-66
2022/05/07 03:04:10;;;;;;;7.03;6.33;;;9.20;99.90;;;;;;5048860;28;20739;-65
2022/05/07 03:06:37;;;;;;;7.30;6.60;;;9.00;99.90;;;;;;5051568;28;20694;-66
2022/05/07 03:09:03;;;;;;;6.88;6.20;;;9.00;99.90;;;;;;5049848;28;20185;-66
2022/05/07 03:11:32;;;;;;;7.10;6.45;;;9.00;99.90;;;;;;5054667;28;20182;-66
2022/05/07 03:13:58;;;;;;;5.72;5.22;;;8.80;99.90;;;;;;5045579;28;20280;-66
2022/05/07 03:16:24;;;;;;;6.60;5.83;;;9.10;99.90;;;;;;5050783;28;20186;-66
2022/05/07 03:18:50;;;;;;;6.77;6.07;;;8.90;99.90;;;;;;5052726;28;20402;-66
2022/05/07 03:21:15;;;;;;;6.50;5.90;;;8.90;99.90;;;;;;5050151;28;20552;-66
2022/05/07 03:23:42;;;;;;;6.73;5.90;;;9.10;99.90;;;;;;5049968;28;20554;-66
2022/05/07 03:26:08;;;;;;;7.28;6.65;;;8.90;99.90;;;;;;5050438;28;20216;-65
2022/05/07 03:28:33;;;;;;;6.80;6.20;;;9.10;99.90;;;;;;5051476;28;20218;-66
2022/05/07 03:31:00;;;;;;;6.37;5.80;;;9.00;99.90;;;;;;5051283;28;20432;-66
2022/05/07 03:33:26;;;;;;;9.38;6.65;;;8.90;99.90;;;;;;5049158;28;20213;-67
2022/05/07 03:35:51;;;;;;;7.47;6.67;;;8.70;99.90;;;;;;5050668;28;20255;-65
2022/05/07 03:38:17;;;;;;;8.27;7.20;;;8.90;99.90;;;;;;5049311;28;20896;-66
2022/05/07 03:40:43;;;;;;;7.23;6.53;;;8.90;99.90;;;;;;5047503;28;20190;-66
2022/05/07 03:43:08;;;;;;;6.60;6.00;;;9.30;99.90;;;;;;5041482;28;20212;-66
2022/05/07 03:45:34;;;;;;;6.30;5.53;;;8.90;99.90;;;;;;5051020;28;20462;-66
2022/05/07 03:48:00;;;;;;;6.27;5.67;;;8.90;99.90;;;;;;5047032;28;20297;-66
2022/05/07 03:50:25;;;;;;;7.50;6.80;;;8.80;99.90;;;;;;5051286;28;20239;-66
2022/05/07 03:55:44;;;;;;;6.65;6.05;;;8.90;99.90;;;;;;5044810;28;20220;-66
2022/05/07 03:58:17;;;;;;;8.77;6.38;;;8.80;99.90;;;;;;5048461;28;20212;-66
2022/05/07 04:00:45;;;;;;;6.35;5.75;;;8.70;99.90;;;;;;5049521;28;20237;-66
2022/05/07 04:03:12;;;;;;;6.60;6.00;;;8.70;99.90;;;;;;5060924;28;20178;-66
2022/05/07 04:05:38;;;;;;;7.88;7.05;;;9.00;99.90;;;;;;5050206;28;20277;-66
2022/05/07 04:08:04;;;;;;;8.25;6.90;;;8.70;99.90;;;;;;5044594;28;20675;-66
2022/05/07 04:10:30;;;;;;;7.18;6.47;;;8.50;99.90;;;;;;5048802;28;20189;-66
2022/05/07 04:12:56;;;;;;;6.80;6.20;;;8.10;99.90;;;;;;5045175;28;20197;-65
2022/05/07 04:15:22;;;;;;;6.90;6.20;;;8.80;99.90;;;;;;5048102;28;20718;-65
2022/05/07 04:17:49;;;;;;;6.45;5.85;;;8.50;99.90;;;;;;5049441;28;20201;-65
2022/05/07 04:20:15;;;;;;;7.70;6.75;;;8.70;99.90;;;;;;5048901;28;20197;-65
2022/05/07 04:22:41;;;;;;;7.00;6.30;;;8.70;99.90;;;;;;5049255;28;20185;-66
2022/05/07 04:25:08;;;;;;;7.87;6.73;;;8.70;99.90;;;;;;5049657;28;20605;-65
2022/05/07 04:27:34;;;;;;;7.05;6.43;;;8.60;99.90;;;;;;5049654;28;20459;-65
2022/05/07 04:30:01;;;;;;;7.07;6.38;;;8.70;99.90;;;;;;5050183;28;20201;-65
2022/05/07 04:32:27;;;;;;;6.75;6.07;;;8.90;99.90;;;;;;5049009;28;20204;-65
2022/05/07 04:34:55;;;;;;;8.10;6.35;;;8.60;99.90;;;;;;5059260;28;20236;-66
2022/05/07 04:37:21;;;;;;;8.65;6.82;;;8.90;99.90;;;;;;5063584;28;20242;-65
2022/05/07 04:39:47;;;;;;;10.27;5.70;;;8.70;99.90;;;;;;5055084;28;20185;-66
2022/05/07 04:42:13;;;;;;;7.10;6.40;;;8.60;99.90;;;;;;5055573;28;20595;-65
2022/05/07 04:44:39;;;;;;;8.45;6.15;;;8.60;99.90;;;;;;5049548;28;20581;-66
2022/05/07 04:47:05;;;;;;;6.00;5.40;;;8.90;99.90;;;;;;5055376;28;20205;-65
2022/05/07 04:49:31;;;;;;;9.63;6.43;;;9.00;99.90;;;;;;5056271;28;20188;-65
2022/05/07 04:51:57;;;;;;;6.40;5.88;;;8.90;99.90;;;;;;5072334;28;20557;-65
2022/05/07 04:54:23;;;;;;;6.83;6.13;;;9.00;99.90;;;;;;5050352;28;20198;-66
2022/05/07 04:56:51;;;;;;;7.88;6.00;;;8.70;99.90;;;;;;5055098;28;20912;-66
2022/05/07 04:59:18;;;;;;;6.30;5.70;;;9.20;99.90;;;;;;5042382;28;20196;-66
2022/05/07 05:01:44;;;;;;;6.65;6.10;;;8.80;99.90;;;;;;5054586;28;20185;-66
2022/05/07 05:04:10;;;;;;;8.05;7.30;;;8.90;99.90;;;;;;5052479;28;20284;-66
2022/05/07 05:06:36;;;;;;;7.03;6.32;;;9.50;99.90;;;;;;5070408;28;20708;-66
2022/05/07 05:09:04;;;;;;;8.00;6.80;;;9.30;99.90;;;;;;5060181;28;20254;-66
2022/05/07 05:11:30;;;;;;;6.72;6.13;;;9.10;99.90;;;;;;5061339;28;20185;-66
2022/05/07 05:13:56;;;;;;;6.80;6.10;;;9.20;99.90;;;;;;5053068;28;20865;-66
2022/05/07 05:16:21;;;;;;;8.47;7.27;;;9.30;99.90;;;;;;5064119;28;20557;-67
2022/05/07 05:18:47;;;;;;;8.65;6.90;;;9.20;99.90;;;;;;5052618;28;20513;-66
2022/05/07 05:21:13;;;;;;;6.77;6.10;;;9.00;99.90;;;;;;5057108;28;20594;-66
2022/05/07 05:23:38;;;;;;;6.70;6.00;;;9.70;99.90;;;;;;5055053;28;20246;-66
2022/05/07 05:26:04;;;;;;;6.30;5.80;;;9.80;99.90;;;;;;5056620;28;20216;-67
2022/05/07 05:28:30;;;;;;;7.57;6.27;;;9.60;99.90;;;;;;5056111;28;20682;-65
2022/05/07 05:30:55;;;;;;;7.00;6.40;;;10.00;99.90;;;;;;5055417;28;20225;-65
2022/05/07 05:33:22;;;;;;;7.07;6.37;;;10.00;99.90;;;;;;5054892;28;20182;-66
2022/05/07 05:35:48;;;;;;;6.90;6.30;;;10.40;99.90;;;;;;5046737;28;20546;-65
2022/05/07 05:38:15;;;;;;;6.93;6.22;;;10.20;99.90;;;;;;5045763;28;20275;-66
2022/05/07 05:40:41;;;;;;;6.18;5.32;;;10.20;99.90;;;;;;5046443;28;20182;-66
2022/05/07 05:43:10;;;;;;;26.48;12.45;;;10.80;99.90;;;;;;5064187;28;20178;-65
2022/05/07 05:45:37;;;;;;;10.90;8.75;;;10.90;99.90;;;;;;5051782;28;20237;-66
2022/05/07 05:48:04;;;;;;;9.18;7.47;;;10.90;99.90;;;;;;5047091;28;20682;-66
2022/05/07 05:50:30;;;;;;;6.70;6.10;;;10.90;99.90;;;;;;5054547;28;20201;-66
2022/05/07 05:52:57;;;;;;;15.30;7.50;;;11.00;99.90;;;;;;5064968;28;20182;-65
2022/05/07 05:55:23;;;;;;;6.82;6.22;;;11.20;99.90;;;;;;5048629;28;20203;-65
2022/05/07 05:57:49;;;;;;;7.73;7.00;;;11.50;99.90;;;;;;5044949;28;20319;-66
2022/05/07 06:00:16;;;;;;;6.78;6.18;;;11.80;99.90;;;;;;5043137;28;20182;-65
2022/05/07 06:02:45;;;;;;;7.65;6.97;;;12.10;99.90;;;;;;5044535;28;20532;-65
2022/05/07 06:05:12;;;;;;;10.23;7.20;;;12.50;99.90;;;;;;5050937;28;20296;-66
2022/05/07 06:07:38;;;;;;;8.00;7.28;;;12.40;99.90;;;;;;5044511;28;20206;-66
2022/05/07 06:10:04;;;;;;;7.85;7.05;;;12.70;99.90;;;;;;5048804;28;20603;-65
2022/05/07 06:12:31;;;;;;;7.82;7.00;;;12.90;99.90;;;;;;5050530;28;20192;-66
2022/05/07 06:14:56;;;;;;;7.00;6.40;;;12.90;99.90;;;;;;5041940;28;20209;-66
2022/05/07 06:17:22;;;;;;;7.60;6.60;;;13.10;99.90;;;;;;5048676;28;20191;-66
2022/05/07 06:19:48;;;;;;;6.82;6.22;;;12.90;99.90;;;;;;5040579;28;20194;-66
2022/05/07 06:22:14;;;;;;;7.30;6.57;;;13.10;99.90;;;;;;5051024;28;20195;-66
2022/05/07 06:27:33;;;;;;;8.82;7.82;;;13.20;99.90;;;;;;5043429;28;20710;-66
2022/05/07 06:29:59;;;;;;;7.85;7.05;;;13.50;99.90;;;;;;5046105;28;20201;-66
2022/05/07 06:32:36;;;;;;;8.98;7.13;;;13.40;99.90;;;;;;5048062;28;20527;-66
2022/05/07 06:35:06;;;;;;;7.40;6.70;;;13.50;99.90;;;;;;5059028;28;20201;-66
2022/05/07 06:37:33;;;;;;;9.32;7.82;;;14.10;99.90;;;;;;5049121;28;20232;-66
2022/05/07 06:40:00;;;;;;;8.05;7.25;;;14.20;99.90;;;;;;5045253;28;20181;-66
2022/05/07 06:42:26;;;;;;;9.77;8.88;;;14.50;99.90;;;;;;5044059;28;20654;-66
2022/05/07 06:44:51;;;;;;;8.13;7.43;;;14.40;99.90;;;;;;5049012;28;20228;-66
2022/05/07 06:47:17;;;;;;;10.70;8.70;;;14.50;99.90;;;;;;5048332;28;20455;-66
2022/05/07 06:49:43;;;;;;;11.40;8.87;;;14.80;99.90;;;;;;5049107;28;20186;-66
2022/05/07 06:52:09;;;;;;;10.95;9.65;;;15.50;99.90;;;;;;5050034;28;20181;-67
2022/05/07 06:54:35;;;;;;;10.65;9.68;;;16.40;98.40;;;;;;5045232;28;20210;-66
2022/05/07 06:57:03;;;;;;;10.00;9.10;;;16.70;96.60;;;;;;5046045;28;20186;-69
2022/05/07 06:59:29;;;;;;;10.90;9.80;;;17.90;95.50;;;;;;5045427;28;20485;-67
2022/05/07 07:01:55;;;;;;;10.20;8.32;;;19.90;92.50;;;;;;5046196;28;20201;-67
2022/05/07 07:04:21;;;;;;;9.63;8.80;;;21.40;89.60;;;;;;5049846;28;20209;-68
2022/05/07 07:06:47;;;;;;;9.87;8.90;;;23.50;79.20;;;;;;5050202;28;20435;-68
2022/05/07 07:09:13;;;;;;;10.10;9.20;;;25.10;72.20;;;;;;5050411;28;20433;-68
2022/05/07 07:11:39;;;;;;;8.83;8.13;;;26.10;65.40;;;;;;5047393;28;20498;-68
2022/05/07 07:14:04;;;;;;;9.40;8.63;;;24.80;70.40;;;;;;5050040;28;20217;-68
2022/05/07 07:16:30;;;;;;;10.20;9.40;;;27.70;62.10;;;;;;5044391;28;20210;-68
2022/05/07 07:18:56;;;;;;;10.90;9.90;;;29.40;57.70;;;;;;5046305;28;20573;-68
2022/05/07 07:21:21;;;;;;;9.43;8.70;;;30.80;53.90;;;;;;5043035;28;20851;-68
2022/05/07 07:23:48;;;;;;;10.73;9.80;;;31.70;50.30;;;;;;5047253;28;20186;-69
2022/05/07 07:26:14;;;;;;;11.30;9.83;;;32.30;49.30;;;;;;5051512;28;20190;-68
2022/05/07 07:28:40;;;;;;;9.53;8.83;;;32.20;47.90;;;;;;5050484;28;20507;-69
2022/05/07 07:31:06;;;;;;;12.30;11.10;;;32.70;46.80;;;;;;5058882;28;20941;-68
2022/05/07 07:33:32;;;;;;;9.40;8.80;;;33.50;45.70;;;;;;5042895;28;20441;-68
2022/05/07 07:35:57;;;;;;;10.73;9.67;;;32.30;44.60;;;;;;5043322;28;20470;-68
2022/05/07 07:38:23;;;;;;;12.27;11.10;;;31.60;46.60;;;;;;5041070;28;20185;-68
2022/05/07 07:40:51;;;;;;;10.53;9.60;;;29.70;47.80;;;;;;5047359;28;20186;-68
2022/05/07 07:43:17;;;;;;;9.83;9.03;;;30.80;48.50;;;;;;5045704;28;20188;-68
2022/05/07 07:48:29;;;;;;;9.13;8.43;;;31.40;45.20;;;;;;5044882;28;20466;-62
2022/05/07 07:50:55;;;;;;;7.60;7.00;;;31.70;45.00;;;;;;5039082;28;20531;-61
2022/05/07 07:53:22;;;;;;;9.53;8.63;;;32.60;42.90;;;;;;5046962;28;20489;-60
2022/05/07 07:55:48;;;;;;;8.10;7.50;;;33.10;41.60;;;;;;5048528;28;20630;-60
2022/05/07 07:58:14;;;;;;;7.43;6.83;;;33.70;39.70;;;;;;5047690;28;20436;-60
2022/05/07 08:00:42;;;;;;;8.07;7.37;;;34.40;38.80;;;;;;5048398;28;20192;-60
2022/05/07 08:03:13;;;;;;;8.53;7.87;;;35.10;37.70;;;;;;5047938;28;20189;-60
2022/05/07 08:05:40;;;;;;;10.60;8.07;;;35.10;37.80;;;;;;5042332;28;20471;-60
2022/05/07 08:13:38;;;;;;;8.37;7.67;;;34.30;38.30;;;;;;5047677;28;20979;-65
2022/05/07 08:16:05;;;;;;;10.80;10.00;;;32.30;40.20;;;;;;5047831;28;20471;-62
2022/05/07 08:18:30;;;;;;;9.47;8.70;;;33.30;38.60;;;;;;5046758;28;20474;-64
2022/05/07 08:20:57;;;;;;;8.93;8.23;;;33.60;38.70;;;;;;5044506;28;20494;-64
2022/05/07 08:23:23;;;;;;;11.77;10.60;;;34.70;38.20;;;;;;5047684;28;20225;-62
2022/05/07 08:25:49;;;;;;;12.33;11.23;;;34.20;38.10;;;;;;5048154;28;20577;-65
2022/05/07 08:28:15;;;;;;;10.77;9.97;;;35.20;37.00;;;;;;5048364;28;20987;-64
2022/05/07 08:30:41;;;;;;;10.07;9.33;;;35.90;35.80;;;;;;5046681;28;20444;-66
2022/05/07 08:33:07;;;;;;;10.80;10.00;;;35.60;36.40;;;;;;5047441;28;20443;-64
2022/05/07 08:35:33;;;;;;;11.80;10.87;;;33.90;37.60;;;;;;5049669;28;20673;-65
2022/05/07 08:37:59;;;;;;;9.67;8.97;;;33.80;38.90;;;;;;5043890;28;20526;-65
2022/05/07 08:40:26;;;;;;;11.90;10.70;;;33.80;37.60;;;;;;5049328;28;20439;-67
2022/05/07 08:42:54;;;;;;;11.53;10.73;;;33.40;37.70;;;;;;5047169;28;20442;-63
2022/05/07 08:45:19;;;;;;;10.97;10.17;;;34.30;38.50;;;;;;5062613;22;20901;-61
2022/05/07 08:47:45;;;;;;;21.27;15.50;;;33.80;37.80;;;;;;5052168;28;20475;-60
2022/05/07 08:50:13;;;;;;;10.60;9.70;;;34.60;37.60;;;;;;5058040;28;20226;-60
2022/05/07 08:52:43;;;;;;;12.67;11.67;;;34.60;37.40;;;;;;5050426;28;20632;-60
2022/05/07 08:55:13;;;;;;;11.43;10.53;;;35.40;36.90;;;;;;5047255;28;20978;-71
2022/05/07 08:57:40;;;;;;;11.60;10.60;;;36.00;36.10;;;;;;5049141;28;20497;-71
2022/05/07 09:00:08;;;;;;;11.67;10.77;;;35.40;36.80;;;;;;5049742;28;20454;-68
2022/05/07 09:02:49;;;;;;;11.43;10.53;;;35.80;36.10;;;;;;5060602;28;20440;-68
2022/05/07 09:05:18;;;;;;;11.60;10.50;;;36.10;35.70;;;;;;5048018;28;20499;-67
2022/05/07 09:07:58;;;;;;;10.33;9.50;;;36.40;35.00;;;;;;5072142;28;20467;-65
2022/05/07 09:10:29;;;;;;;11.50;10.40;;;36.10;35.20;;;;;;5052079;28;20459;-66
2022/05/07 09:13:09;;;;;;;12.13;11.00;;;36.70;34.70;;;;;;5052368;28;20457;-67
2022/05/07 09:15:35;;;;;;;11.40;10.43;;;36.60;34.70;;;;;;5054773;28;20447;-68
2022/05/07 09:18:11;;;;;;;11.07;10.10;;;36.50;33.90;;;;;;5065401;28;20436;-66
2022/05/07 09:20:37;;;;;;;11.17;10.17;;;36.50;34.10;;;;;;5047077;28;20533;-65
2022/05/07 09:23:03;;;;;;;11.53;10.50;;;35.00;34.10;;;;;;5062677;28;20488;-65
2022/05/07 09:25:30;;;;;;;10.53;9.53;;;35.50;34.70;;;;;;5056336;28;20201;-66
2022/05/07 09:27:57;;;;;;;8.83;8.03;;;35.40;35.00;;;;;;5061760;28;20295;-66
2022/05/07 09:30:25;;;;;;;7.83;7.30;;;35.20;34.00;;;;;;5058304;28;20461;-63
2022/05/07 09:32:53;;;;;;;9.27;8.57;;;34.70;34.10;;;;;;5053354;28;20496;-67
2022/05/07 09:38:08;;;;;;;8.20;7.60;;;34.60;33.00;;;;;;5059500;28;20802;-69
2022/05/07 09:40:41;;;;;;;7.50;6.80;;;33.50;35.50;;;;;;5050929;28;20433;-71
2022/05/07 09:43:13;;;;;;;6.40;5.90;;;33.90;33.30;;;;;;5055913;28;20561;-65
2022/05/07 09:45:41;;;;;;;5.63;4.97;;;34.70;34.10;;;;;;5056562;28;20980;-62
2022/05/07 09:48:07;;;;;;;5.90;5.40;;;33.40;32.60;;;;;;5069998;28;21403;-64
2022/05/07 09:58:37;;;;;;;4.30;4.00;;;33.20;33.30;;;;;;5052174;28;20967;-63
2022/05/07 10:01:21;;;;;;;2.50;2.30;;;34.00;32.40;;;;;;5048211;28;20440;-63
2022/05/07 10:04:04;;;;;;;3.90;3.60;;;34.30;29.00;;;;;;5064740;28;20880;-63
2022/05/07 10:07:04;;;;;;;3.80;3.50;;;33.50;30.10;;;;;;5049291;28;20450;-64
2022/05/07 10:09:43;;;;;;;4.40;3.97;;;31.80;32.20;;;;;;5050386;28;20454;-63
2022/05/07 10:12:16;;;;;;;3.20;3.00;;;29.70;34.50;;;;;;5060796;28;20426;-65
2022/05/07 10:14:42;;;;;;;2.60;2.20;;;28.90;36.60;;;;;;5042974;28;20470;-64
2022/05/07 10:17:11;;;;;;;2.77;2.40;;;28.00;34.50;;;;;;5049742;28;20518;-63
2022/05/07 10:19:44;;;;;;;3.47;2.80;;;27.70;35.30;;;;;;5048433;28;20630;-69
2022/05/07 10:22:16;;;;;;;3.43;3.13;;;26.30;37.20;;;;;;5048605;28;20649;-71
2022/05/07 10:24:43;;;;;;;3.50;3.20;;;26.50;38.40;;;;;;5049250;28;20540;-71
2022/05/07 10:27:44;;;;;;;3.80;3.40;;;26.10;39.30;;;;;;5056240;28;21031;-70
2022/05/07 10:30:23;;;;;;;2.87;2.03;;;26.10;40.40;;;;;;5040332;28;20493;-69
2022/05/07 10:32:58;;;;;;;2.97;2.77;;;25.90;39.10;;;;;;5061095;28;20454;-70
2022/05/07 10:35:42;;;;;;;3.30;3.00;;;25.80;39.40;;;;;;5051176;28;20460;-68
2022/05/07 10:38:10;;;;;;;3.47;3.10;;;25.80;40.30;;;;;;5052255;28;20495;-69
2022/05/07 10:40:36;;;;;;;4.80;3.03;;;25.90;41.40;;;;;;5054736;28;20446;-69
2022/05/07 10:43:03;;;;;;;4.23;3.60;;;26.10;41.00;;;;;;5054433;28;20448;-69
2022/05/07 10:45:40;;;;;;;5.20;2.97;;;25.60;40.40;;;;;;5054828;28;20750;-70
2022/05/07 10:48:16;;;;;;;3.40;3.20;;;25.70;39.60;;;;;;5047372;28;20967;-70
2022/05/07 10:50:53;;;;;;;4.10;3.27;;;25.80;40.20;;;;;;5051935;28;20465;-70
2022/05/07 10:53:37;;;;;;;5.90;3.97;;;25.60;41.00;;;;;;5044901;28;20451;-68
2022/05/07 10:56:03;;;;;;;6.63;5.10;;;24.90;43.50;;;;;;5040698;28;20996;-70
2022/05/07 10:58:39;;;;;;;5.00;4.17;;;24.50;45.10;;;;;;5050270;28;20428;-69
2022/05/07 11:01:22;;;;;;;6.10;3.43;;;24.50;46.40;;;;;;5057584;28;20447;-70
2022/05/07 11:04:08;;;;;;;4.77;4.37;;;25.60;44.70;;;;;;5045910;28;20458;-71
2022/05/07 11:06:39;;;;;;;4.83;4.50;;;26.30;42.70;;;;;;5057702;28;21824;-69
2022/05/07 11:09:05;;;;;;;4.70;4.27;;;25.80;42.90;;;;;;5057548;28;20963;-69
2022/05/07 11:11:40;;;;;;;4.60;4.20;;;25.50;44.00;;;;;;5052239;28;20472;-70
2022/05/07 11:14:06;;;;;;;4.20;3.80;;;25.00;43.60;;;;;;5056768;28;20541;-69
2022/05/07 11:16:32;;;;;;;4.40;4.10;;;24.80;45.10;;;;;;5063166;28;20451;-69
2022/05/07 11:18:57;;;;;;;4.83;4.40;;;24.50;45.50;;;;;;5053597;28;20666;-70
2022/05/07 11:21:25;;;;;;;4.37;3.97;;;24.80;46.00;;;;;;5067114;28;20195;-70
2022/05/07 11:23:54;;;;;;;4.37;3.57;;;25.50;44.80;;;;;;5049532;28;20272;-70
2022/05/07 11:26:20;;;;;;;4.60;3.70;;;26.30;44.00;;;;;;5052919;28;20451;-70
2022/05/07 11:28:47;;;;;;;4.27;3.43;;;27.20;42.00;;;;;;5054063;28;20843;-70
2022/05/07 11:31:27;;;;;;;3.57;3.23;;;27.70;39.50;;;;;;5051696;28;20836;-69
2022/05/07 11:34:10;;;;;;;4.53;4.20;;;28.70;38.70;;;;;;5049099;28;20478;-71
2022/05/07 11:36:36;;;;;;;3.60;3.27;;;27.70;39.20;;;;;;5054042;28;20440;-70
2022/05/07 11:39:06;;;;;;;3.37;3.13;;;26.70;40.80;;;;;;5055835;28;20510;-69
2022/05/07 11:41:33;;;;;;;4.03;2.97;;;27.30;40.40;;;;;;5058952;28;20451;-68
2022/05/07 11:46:56;;;;;;;3.53;2.90;;;27.00;39.70;;;;;;5058520;28;21016;-70
2022/05/07 11:49:34;;;;;;;3.30;3.00;;;27.20;39.50;;;;;;5056885;28;20504;-70
2022/05/07 11:52:08;;;;;;;2.50;2.30;;;26.80;39.60;;;;;;5057218;28;20935;-70
2022/05/07 11:54:34;;;;;;;5.03;3.40;;;26.30;39.30;;;;;;5058666;28;20539;-69
2022/05/07 11:56:59;;;;;;;3.60;3.30;;;25.70;40.50;;;;;;5054572;28;20507;-70
2022/05/07 11:59:26;;;;;;;3.40;3.10;;;25.80;42.00;;;;;;5056138;28;21009;-70
2022/05/07 12:01:52;;;;;;;4.73;3.23;;;25.40;41.60;;;;;;5062249;28;20211;-69
2022/05/07 12:04:17;;;;;;;3.63;3.07;;;24.90;42.90;;;;;;5044059;28;20526;-69
2022/05/07 12:06:55;;;;;;;3.20;2.90;;;24.70;41.00;;;;;;5042136;28;20561;-70
2022/05/07 12:09:20;;;;;;;5.37;3.47;;;24.80;42.40;;;;;;5043296;28;20192;-69
2022/05/07 12:11:46;;;;;;;5.60;5.03;;;24.20;42.20;;;;;;5064411;28;20432;-69
2022/05/07 12:14:12;;;;;;;3.30;3.10;;;24.30;42.00;;;;;;5050240;28;20229;-69
2022/05/07 12:19:29;;;;;;;2.90;2.70;;;24.20;43.10;;;;;;5046610;28;20189;-70
2022/05/07 12:30:08;;;;;;;2.90;2.70;;;21.60;40.10;;;;;;5054606;28;20462;-67
2022/05/07 12:32:34;;;;;;;2.60;2.40;;;24.10;42.40;;;;;;5049989;28;20440;-68
2022/05/07 12:35:00;;;;;;;4.37;2.70;;;24.10;43.20;;;;;;5055075;28;20519;-70
2022/05/07 12:37:25;;;;;;;4.20;3.27;;;24.40;44.00;;;;;;5051751;28;20439;-69
2022/05/07 12:39:51;;;;;;;4.53;4.13;;;24.00;44.60;;;;;;5050463;28;20277;-69
2022/05/07 12:42:18;;;;;;;4.23;3.80;;;23.70;44.40;;;;;;5041978;28;20181;-69
2022/05/07 12:44:44;;;;;;;5.00;3.07;;;23.50;45.00;;;;;;5044736;28;20908;-68
2022/05/07 12:47:11;;;;;;;3.00;2.80;;;23.60;45.30;;;;;;5062828;28;20475;-69
2022/05/07 12:49:37;;;;;;;3.77;3.47;;;23.50;46.20;;;;;;5052215;28;20432;-69
2022/05/07 12:52:03;;;;;;;3.33;3.03;;;23.90;46.70;;;;;;5049242;28;20434;-69
2022/05/07 12:54:32;;;;;;;4.77;3.07;;;24.40;45.50;;;;;;5055674;28;20525;-69
2022/05/07 12:56:58;;;;;;;4.07;3.10;;;24.20;44.10;;;;;;5058403;28;20443;-69
2022/05/07 12:59:24;;;;;;;4.33;3.93;;;24.20;45.60;;;;;;5055103;28;20430;-69
2022/05/07 13:01:50;;;;;;;3.10;2.90;;;24.50;45.00;;;;;;5052003;28;20174;-69
2022/05/07 13:04:15;;;;;;;4.03;3.13;;;24.30;45.60;;;;;;5054629;28;20221;-69
2022/05/07 13:06:41;;;;;;;3.80;2.93;;;24.50;44.70;;;;;;5050989;28;20188;-69
2022/05/07 13:09:07;;;;;;;3.07;2.87;;;24.20;44.40;;;;;;5052863;28;20208;-69
2022/05/07 13:11:33;;;;;;;7.40;3.43;;;24.00;44.10;;;;;;5050484;28;20448;-69
2022/05/07 13:13:59;;;;;;;3.10;2.90;;;24.10;44.50;;;;;;5051691;28;20435;-69
2022/05/07 13:16:25;;;;;;;3.43;2.87;;;24.20;45.00;;;;;;5066042;28;20440;-70
2022/05/07 13:18:51;;;;;;;2.87;2.50;;;24.00;44.90;;;;;;5054520;28;20449;-70
2022/05/07 13:21:16;;;;;;;3.00;2.77;;;24.40;44.80;;;;;;5057999;28;20264;-69
2022/05/07 13:23:42;;;;;;;2.90;2.70;;;24.20;44.30;;;;;;5053856;28;20267;-69
2022/05/07 13:26:08;;;;;;;4.83;3.13;;;23.80;44.50;;;;;;5050143;28;20206;-70
2022/05/07 13:28:34;;;;;;;2.57;2.43;;;24.30;46.30;;;;;;5066535;28;20212;-71
2022/05/07 13:31:03;;;;;;;4.40;3.83;;;23.60;45.40;;;;;;5056712;28;20439;-72
2022/05/07 13:33:29;;;;;;;3.47;3.17;;;23.80;47.00;;;;;;5054925;28;20264;-69
2022/05/07 13:35:56;;;;;;;2.90;2.70;;;23.80;45.50;;;;;;5050281;28;20551;-70
2022/05/07 13:38:22;;;;;;;3.13;2.83;;;23.90;45.60;;;;;;5052644;28;20185;-71